sensor_id;sensor_type;location;lat;lon;timestamp;temperature;humidity
22491;DHT22;11412;50.802;4.350;2022-08-01T00:01:53;21.10;99.90
22491;DHT22;11412;50.802;4.350;2022-08-01T00:04:19;21.10;99.90
22491;DHT22;11412;50.802;4.350;2022-08-01T00:06:44;21.10;99.90
22491;DHT22;11412;50.802;4.350;2022-08-01T00:09:10;21.20;99.90
22491;DHT22;11412;50.802;4.350;2022-08-01T00:11:36;21.20;99.90
22491;DHT22;11412;50.802;4.350;2022-08-01T00:14:01;21.10;99.90
22491;DHT22;11412;50.802;4.350;2022-08-01T00:16:27;21.10;99.90
22491;DHT22;11412;50.802;4.350;2022-08-01T00:18:53;21.20;99.90
22491;DHT22;11412;50.802;4.350;2022-08-01T00:21:19;21.10;99.90
22491;DHT22;11412;50.802;4.350;2022-08-01T00:23:45;21.00;99.90
22491;DHT22;11412;50.802;4.350;2022-08-01T00:26:13;21.00;99.90
22491;DHT22;11412;50.802;4.350;2022-08-01T00:28:39;21.10;99.90
22491;DHT22;11412;50.802;4.350;2022-08-01T00:31:05;21.10;99.90
22491;DHT22;11412;50.802;4.350;2022-08-01T00:33:31;21.10;99.90
22491;DHT22;11412;50.802;4.350;2022-08-01T00:35:56;21.00;99.90
22491;DHT22;11412;50.802;4.350;2022-08-01T00:38:22;21.00;99.90
22491;DHT22;11412;50.802;4.350;2022-08-01T00:40:48;21.00;99.90
22491;DHT22;11412;50.802;4.350;2022-08-01T00:43:14;21.00;99.90
22491;DHT22;11412;50.802;4.350;2022-08-01T00:45:40;21.00;99.90
22491;DHT22;11412;50.802;4.350;2022-08-01T00:48:06;21.00;99.90
22491;DHT22;11412;50.802;4.350;2022-08-01T00:50:32;21.00;99.90
22491;DHT22;11412;50.802;4.350;2022-08-01T00:52:58;21.20;99.90
22491;DHT22;11412;50.802;4.350;2022-08-01T00:55:24;21.30;99.90
22491;DHT22;11412;50.802;4.350;2022-08-01T00:57:50;21.20;99.90
22491;DHT22;11412;50.802;4.350;2022-08-01T01:00:16;21.20;99.90
22491;DHT22;11412;50.802;4.350;2022-08-01T01:02:41;21.30;99.90
22491;DHT22;11412;50.802;4.350;2022-08-01T01:05:07;21.30;99.90
22491;DHT22;11412;50.802;4.350;2022-08-01T01:08:04;21.10;99.90
22491;DHT22;11412;50.802;4.350;2022-08-01T01:10:46;21.00;99.90
22491;DHT22;11412;50.802;4.350;2022-08-01T01:13:20;20.90;99.90
22491;DHT22;11412;50.802;4.350;2022-08-01T01:15:58;21.00;99.90
22491;DHT22;11412;50.802;4.350;2022-08-01T01:18:28;21.00;99.90
22491;DHT22;11412;50.802;4.350;2022-08-01T01:21:14;21.00;99.90
22491;DHT22;11412;50.802;4.350;2022-08-01T01:29:19;21.00;99.90
22491;DHT22;11412;50.802;4.350;2022-08-01T01:32:05;21.00;99.90
22491;DHT22;11412;50.802;4.350;2022-08-01T01:34:40;21.00;99.90
22491;DHT22;11412;50.802;4.350;2022-08-01T01:37:11;20.90;99.90
22491;DHT22;11412;50.802;4.350;2022-08-01T01:39:38;20.80;99.90
22491;DHT22;11412;50.802;4.350;2022-08-01T01:42:06;20.90;99.90
22491;DHT22;11412;50.802;4.350;2022-08-01T01:44:34;21.10;99.90
22491;DHT22;11412;50.802;4.350;2022-08-01T01:47:01;20.80;99.90
22491;DHT22;11412;50.802;4.350;2022-08-01T01:49:28;20.80;99.90
22491;DHT22;11412;50.802;4.350;2022-08-01T01:51:56;20.60;99.90
22491;DHT22;11412;50.802;4.350;2022-08-01T01:54:23;20.60;99.90
22491;DHT22;11412;50.802;4.350;2022-08-01T01:56:50;20.60;99.90
22491;DHT22;11412;50.802;4.350;2022-08-01T01:59:19;20.50;99.90
22491;DHT22;11412;50.802;4.350;2022-08-01T02:01:48;20.50;99.90
22491;DHT22;11412;50.802;4.350;2022-08-01T02:04:16;20.60;99.90
22491;DHT22;11412;50.802;4.350;2022-08-01T02:06:44;20.70;99.90
22491;DHT22;11412;50.802;4.350;2022-08-01T02:09:11;20.70;99.90
22491;DHT22;11412;50.802;4.350;2022-08-01T02:11:40;20.70;99.90
22491;DHT22;11412;50.802;4.350;2022-08-01T02:14:08;20.70;99.90
22491;DHT22;11412;50.802;4.350;2022-08-01T02:16:36;20.60;99.90
22491;DHT22;11412;50.802;4.350;2022-08-01T02:19:04;20.50;99.90
22491;DHT22;11412;50.802;4.350;2022-08-01T02:21:38;20.50;99.90
22491;DHT22;11412;50.802;4.350;2022-08-01T02:27:08;20.50;99.90
22491;DHT22;11412;50.802;4.350;2022-08-01T02:29:52;20.50;99.90
22491;DHT22;11412;50.802;4.350;2022-08-01T02:32:31;20.50;99.90
22491;DHT22;11412;50.802;4.350;2022-08-01T02:35:00;20.50;99.90
22491;DHT22;11412;50.802;4.350;2022-08-01T02:37:29;20.40;99.90
22491;DHT22;11412;50.802;4.350;2022-08-01T02:39:56;20.50;99.90
22491;DHT22;11412;50.802;4.350;2022-08-01T02:42:25;20.40;99.90
22491;DHT22;11412;50.802;4.350;2022-08-01T02:44:52;20.40;99.90
22491;DHT22;11412;50.802;4.350;2022-08-01T02:47:19;20.40;99.90
22491;DHT22;11412;50.802;4.350;2022-08-01T02:49:47;20.50;99.90
22491;DHT22;11412;50.802;4.350;2022-08-01T02:52:16;20.50;99.90
22491;DHT22;11412;50.802;4.350;2022-08-01T02:54:49;20.50;99.90
22491;DHT22;11412;50.802;4.350;2022-08-01T02:57:16;20.60;99.90
22491;DHT22;11412;50.802;4.350;2022-08-01T02:59:44;20.50;99.90
22491;DHT22;11412;50.802;4.350;2022-08-01T03:02:12;20.40;99.90
22491;DHT22;11412;50.802;4.350;2022-08-01T03:04:40;20.30;99.90
22491;DHT22;11412;50.802;4.350;2022-08-01T03:07:08;20.40;99.90
22491;DHT22;11412;50.802;4.350;2022-08-01T03:09:38;20.20;99.90
22491;DHT22;11412;50.802;4.350;2022-08-01T03:12:08;20.30;99.90
22491;DHT22;11412;50.802;4.350;2022-08-01T03:14:36;20.30;99.90
22491;DHT22;11412;50.802;4.350;2022-08-01T03:17:04;20.30;99.90
22491;DHT22;11412;50.802;4.350;2022-08-01T03:19:31;20.40;99.90
22491;DHT22;11412;50.802;4.350;2022-08-01T03:21:58;20.30;99.90
22491;DHT22;11412;50.802;4.350;2022-08-01T03:24:25;20.30;99.90
22491;DHT22;11412;50.802;4.350;2022-08-01T03:26:52;20.30;99.90
22491;DHT22;11412;50.802;4.350;2022-08-01T03:29:22;20.30;99.90
22491;DHT22;11412;50.802;4.350;2022-08-01T03:31:50;20.30;99.90
22491;DHT22;11412;50.802;4.350;2022-08-01T03:34:16;20.30;99.90
22491;DHT22;11412;50.802;4.350;2022-08-01T03:36:48;20.30;99.90
22491;DHT22;11412;50.802;4.350;2022-08-01T03:39:16;20.20;99.90
22491;DHT22;11412;50.802;4.350;2022-08-01T03:41:49;20.10;99.90
22491;DHT22;11412;50.802;4.350;2022-08-01T03:44:19;20.10;99.90
22491;DHT22;11412;50.802;4.350;2022-08-01T03:46:47;20.10;99.90
22491;DHT22;11412;50.802;4.350;2022-08-01T03:49:20;20.00;99.90
22491;DHT22;11412;50.802;4.350;2022-08-01T03:51:48;20.10;99.90
22491;DHT22;11412;50.802;4.350;2022-08-01T03:54:17;20.00;99.90
22491;DHT22;11412;50.802;4.350;2022-08-01T03:56:47;20.00;99.90
22491;DHT22;11412;50.802;4.350;2022-08-01T03:59:14;20.10;99.90
22491;DHT22;11412;50.802;4.350;2022-08-01T04:01:41;20.00;99.90
22491;DHT22;11412;50.802;4.350;2022-08-01T04:04:08;19.90;99.90
22491;DHT22;11412;50.802;4.350;2022-08-01T04:06:37;19.90;99.90
22491;DHT22;11412;50.802;4.350;2022-08-01T04:09:04;19.90;99.90
22491;DHT22;11412;50.802;4.350;2022-08-01T04:11:29;19.90;99.90
22491;DHT22;11412;50.802;4.350;2022-08-01T04:13:55;19.80;99.90
22491;DHT22;11412;50.802;4.350;2022-08-01T04:16:22;19.70;99.90
22491;DHT22;11412;50.802;4.350;2022-08-01T04:18:48;19.70;99.90
22491;DHT22;11412;50.802;4.350;2022-08-01T04:21:14;19.70;99.90
22491;DHT22;11412;50.802;4.350;2022-08-01T04:23:44;19.70;99.90
22491;DHT22;11412;50.802;4.350;2022-08-01T04:26:12;19.70;99.90
22491;DHT22;11412;50.802;4.350;2022-08-01T04:28:40;19.70;99.90
22491;DHT22;11412;50.802;4.350;2022-08-01T04:31:08;19.70;99.90
22491;DHT22;11412;50.802;4.350;2022-08-01T04:33:41;19.70;99.90
22491;DHT22;11412;50.802;4.350;2022-08-01T04:36:11;19.60;99.90
22491;DHT22;11412;50.802;4.350;2022-08-01T04:38:38;19.60;99.90
22491;DHT22;11412;50.802;4.350;2022-08-01T04:41:06;19.60;99.90
22491;DHT22;11412;50.802;4.350;2022-08-01T04:43:32;19.50;99.90
22491;DHT22;11412;50.802;4.350;2022-08-01T04:45:59;19.50;99.90
22491;DHT22;11412;50.802;4.350;2022-08-01T04:48:29;19.50;99.90
22491;DHT22;11412;50.802;4.350;2022-08-01T04:50:57;19.50;99.90
22491;DHT22;11412;50.802;4.350;2022-08-01T04:53:22;19.50;99.90
22491;DHT22;11412;50.802;4.350;2022-08-01T04:55:48;19.50;99.90
22491;DHT22;11412;50.802;4.350;2022-08-01T04:58:14;19.50;99.90
22491;DHT22;11412;50.802;4.350;2022-08-01T05:00:40;19.50;99.90
22491;DHT22;11412;50.802;4.350;2022-08-01T05:03:06;19.50;99.90
22491;DHT22;11412;50.802;4.350;2022-08-01T05:05:32;19.50;99.90
22491;DHT22;11412;50.802;4.350;2022-08-01T05:07:57;19.50;99.90
22491;DHT22;11412;50.802;4.350;2022-08-01T05:10:23;19.50;99.90
22491;DHT22;11412;50.802;4.350;2022-08-01T05:12:49;19.60;99.90
22491;DHT22;11412;50.802;4.350;2022-08-01T05:15:14;19.60;99.90
22491;DHT22;11412;50.802;4.350;2022-08-01T05:17:41;19.60;99.90
22491;DHT22;11412;50.802;4.350;2022-08-01T05:20:11;19.50;99.90
22491;DHT22;11412;50.802;4.350;2022-08-01T05:22:37;19.60;99.90
22491;DHT22;11412;50.802;4.350;2022-08-01T05:25:04;19.60;99.90
22491;DHT22;11412;50.802;4.350;2022-08-01T05:27:33;19.50;99.90
22491;DHT22;11412;50.802;4.350;2022-08-01T05:30:04;19.50;99.90
22491;DHT22;11412;50.802;4.350;2022-08-01T05:32:29;19.60;99.90
22491;DHT22;11412;50.802;4.350;2022-08-01T05:34:57;19.50;99.90
22491;DHT22;11412;50.802;4.350;2022-08-01T05:37:22;19.60;99.90
22491;DHT22;11412;50.802;4.350;2022-08-01T05:39:48;19.60;99.90
22491;DHT22;11412;50.802;4.350;2022-08-01T05:42:14;19.70;99.90
22491;DHT22;11412;50.802;4.350;2022-08-01T05:44:39;19.70;99.90
22491;DHT22;11412;50.802;4.350;2022-08-01T05:47:05;19.80;99.90
22491;DHT22;11412;50.802;4.350;2022-08-01T05:49:31;19.80;99.90
22491;DHT22;11412;50.802;4.350;2022-08-01T05:51:56;19.80;99.90
22491;DHT22;11412;50.802;4.350;2022-08-01T05:54:22;19.80;99.90
22491;DHT22;11412;50.802;4.350;2022-08-01T05:56:47;19.90;99.90
22491;DHT22;11412;50.802;4.350;2022-08-01T05:59:13;20.00;99.90
22491;DHT22;11412;50.802;4.350;2022-08-01T06:01:39;19.90;99.90
22491;DHT22;11412;50.802;4.350;2022-08-01T06:04:04;19.90;99.90
22491;DHT22;11412;50.802;4.350;2022-08-01T06:06:30;19.90;99.90
22491;DHT22;11412;50.802;4.350;2022-08-01T06:08:56;20.00;99.90
22491;DHT22;11412;50.802;4.350;2022-08-01T06:11:21;20.00;99.90
22491;DHT22;11412;50.802;4.350;2022-08-01T06:13:47;20.00;99.90
22491;DHT22;11412;50.802;4.350;2022-08-01T06:16:13;20.00;99.90
22491;DHT22;11412;50.802;4.350;2022-08-01T06:18:39;20.00;99.90
22491;DHT22;11412;50.802;4.350;2022-08-01T06:21:04;20.20;99.90
22491;DHT22;11412;50.802;4.350;2022-08-01T06:23:30;20.10;99.90
22491;DHT22;11412;50.802;4.350;2022-08-01T06:25:56;20.20;99.90
22491;DHT22;11412;50.802;4.350;2022-08-01T06:28:23;20.20;99.90
22491;DHT22;11412;50.802;4.350;2022-08-01T06:30:49;20.20;99.90
22491;DHT22;11412;50.802;4.350;2022-08-01T06:33:15;20.30;99.90
22491;DHT22;11412;50.802;4.350;2022-08-01T06:35:41;20.40;99.90
22491;DHT22;11412;50.802;4.350;2022-08-01T06:38:07;20.40;99.90
22491;DHT22;11412;50.802;4.350;2022-08-01T06:40:32;20.60;99.90
22491;DHT22;11412;50.802;4.350;2022-08-01T06:42:58;20.60;99.90
22491;DHT22;11412;50.802;4.350;2022-08-01T06:45:24;20.50;99.90
22491;DHT22;11412;50.802;4.350;2022-08-01T06:47:51;20.60;99.90
22491;DHT22;11412;50.802;4.350;2022-08-01T06:50:17;20.70;99.90
22491;DHT22;11412;50.802;4.350;2022-08-01T06:52:43;20.70;99.90
22491;DHT22;11412;50.802;4.350;2022-08-01T06:55:09;20.70;99.90
22491;DHT22;11412;50.802;4.350;2022-08-01T06:57:34;20.80;99.90
22491;DHT22;11412;50.802;4.350;2022-08-01T07:00:05;20.90;99.90
22491;DHT22;11412;50.802;4.350;2022-08-01T07:02:36;20.80;99.90
22491;DHT22;11412;50.802;4.350;2022-08-01T07:05:02;20.70;99.90
22491;DHT22;11412;50.802;4.350;2022-08-01T07:07:29;20.90;99.90
22491;DHT22;11412;50.802;4.350;2022-08-01T07:09:55;20.90;99.90
22491;DHT22;11412;50.802;4.350;2022-08-01T07:12:21;20.90;99.90
22491;DHT22;11412;50.802;4.350;2022-08-01T07:14:46;21.00;99.90
22491;DHT22;11412;50.802;4.350;2022-08-01T07:17:12;21.30;99.90
22491;DHT22;11412;50.802;4.350;2022-08-01T07:19:38;21.40;99.90
22491;DHT22;11412;50.802;4.350;2022-08-01T07:22:04;21.50;99.90
22491;DHT22;11412;50.802;4.350;2022-08-01T07:24:29;21.50;99.90
22491;DHT22;11412;50.802;4.350;2022-08-01T07:26:55;21.50;99.90
22491;DHT22;11412;50.802;4.350;2022-08-01T07:29:27;21.40;99.90
22491;DHT22;11412;50.802;4.350;2022-08-01T07:31:53;21.40;99.90
22491;DHT22;11412;50.802;4.350;2022-08-01T07:34:20;21.50;99.90
22491;DHT22;11412;50.802;4.350;2022-08-01T07:36:46;21.60;99.90
22491;DHT22;11412;50.802;4.350;2022-08-01T07:39:11;21.80;99.90
22491;DHT22;11412;50.802;4.350;2022-08-01T07:41:37;21.80;99.90
22491;DHT22;11412;50.802;4.350;2022-08-01T07:44:03;21.80;99.90
22491;DHT22;11412;50.802;4.350;2022-08-01T07:46:28;21.90;99.90
22491;DHT22;11412;50.802;4.350;2022-08-01T07:48:55;22.00;99.90
22491;DHT22;11412;50.802;4.350;2022-08-01T07:51:21;22.10;99.90
22491;DHT22;11412;50.802;4.350;2022-08-01T07:53:47;22.20;99.90
22491;DHT22;11412;50.802;4.350;2022-08-01T07:56:13;22.20;99.90
22491;DHT22;11412;50.802;4.350;2022-08-01T07:58:38;22.20;99.90
22491;DHT22;11412;50.802;4.350;2022-08-01T08:01:04;22.20;99.90
22491;DHT22;11412;50.802;4.350;2022-08-01T08:03:30;22.20;99.90
22491;DHT22;11412;50.802;4.350;2022-08-01T08:05:56;22.10;99.90
22491;DHT22;11412;50.802;4.350;2022-08-01T08:08:21;22.00;99.90
22491;DHT22;11412;50.802;4.350;2022-08-01T08:10:47;22.10;99.90
22491;DHT22;11412;50.802;4.350;2022-08-01T08:13:13;22.10;99.90
22491;DHT22;11412;50.802;4.350;2022-08-01T08:15:39;22.20;99.90
22491;DHT22;11412;50.802;4.350;2022-08-01T08:18:05;22.40;99.90
22491;DHT22;11412;50.802;4.350;2022-08-01T08:20:31;22.30;99.90
22491;DHT22;11412;50.802;4.350;2022-08-01T08:22:57;22.50;99.90
22491;DHT22;11412;50.802;4.350;2022-08-01T08:25:25;22.50;99.90
22491;DHT22;11412;50.802;4.350;2022-08-01T08:27:52;22.30;99.90
22491;DHT22;11412;50.802;4.350;2022-08-01T08:30:17;22.40;99.90
22491;DHT22;11412;50.802;4.350;2022-08-01T08:32:43;22.50;99.90
22491;DHT22;11412;50.802;4.350;2022-08-01T08:35:10;22.70;99.90
22491;DHT22;11412;50.802;4.350;2022-08-01T08:37:36;23.00;99.90
22491;DHT22;11412;50.802;4.350;2022-08-01T08:40:03;23.00;99.90
22491;DHT22;11412;50.802;4.350;2022-08-01T08:42:30;23.10;99.90
22491;DHT22;11412;50.802;4.350;2022-08-01T08:44:55;23.20;99.90
22491;DHT22;11412;50.802;4.350;2022-08-01T08:47:22;23.30;99.90
22491;DHT22;11412;50.802;4.350;2022-08-01T08:49:50;23.30;99.90
22491;DHT22;11412;50.802;4.350;2022-08-01T08:52:19;23.30;99.90
22491;DHT22;11412;50.802;4.350;2022-08-01T08:54:46;23.10;99.90
22491;DHT22;11412;50.802;4.350;2022-08-01T08:57:13;22.90;99.90
22491;DHT22;11412;50.802;4.350;2022-08-01T08:59:39;22.90;99.90
22491;DHT22;11412;50.802;4.350;2022-08-01T09:02:07;22.90;99.90
22491;DHT22;11412;50.802;4.350;2022-08-01T09:04:35;22.90;99.90
22491;DHT22;11412;50.802;4.350;2022-08-01T09:07:03;23.00;99.90
22491;DHT22;11412;50.802;4.350;2022-08-01T09:09:28;22.90;99.90
22491;DHT22;11412;50.802;4.350;2022-08-01T09:11:55;22.90;99.90
22491;DHT22;11412;50.802;4.350;2022-08-01T09:14:21;23.00;99.90
22491;DHT22;11412;50.802;4.350;2022-08-01T09:17:07;23.30;99.90
22491;DHT22;11412;50.802;4.350;2022-08-01T09:19:38;23.40;99.90
22491;DHT22;11412;50.802;4.350;2022-08-01T09:22:07;23.50;99.90
22491;DHT22;11412;50.802;4.350;2022-08-01T09:24:34;23.70;99.90
22491;DHT22;11412;50.802;4.350;2022-08-01T09:27:00;23.70;99.90
22491;DHT22;11412;50.802;4.350;2022-08-01T09:29:30;23.90;99.90
22491;DHT22;11412;50.802;4.350;2022-08-01T09:32:04;23.90;99.90
22491;DHT22;11412;50.802;4.350;2022-08-01T09:34:30;23.80;99.90
22491;DHT22;11412;50.802;4.350;2022-08-01T09:37:01;23.30;99.90
22491;DHT22;11412;50.802;4.350;2022-08-01T09:39:29;23.40;99.90
22491;DHT22;11412;50.802;4.350;2022-08-01T09:41:57;23.60;99.90
22491;DHT22;11412;50.802;4.350;2022-08-01T09:44:41;23.90;99.90
22491;DHT22;11412;50.802;4.350;2022-08-01T09:47:07;24.20;99.90
22491;DHT22;11412;50.802;4.350;2022-08-01T09:49:34;23.90;99.90
22491;DHT22;11412;50.802;4.350;2022-08-01T09:52:20;23.90;99.90
22491;DHT22;11412;50.802;4.350;2022-08-01T09:55:07;23.80;99.90
22491;DHT22;11412;50.802;4.350;2022-08-01T09:57:32;24.00;99.90
22491;DHT22;11412;50.802;4.350;2022-08-01T10:00:00;24.50;99.90
22491;DHT22;11412;50.802;4.350;2022-08-01T10:02:37;24.50;99.90
22491;DHT22;11412;50.802;4.350;2022-08-01T10:05:05;24.30;99.90
22491;DHT22;11412;50.802;4.350;2022-08-01T10:07:31;24.30;99.90
22491;DHT22;11412;50.802;4.350;2022-08-01T10:10:13;24.20;99.90
22491;DHT22;11412;50.802;4.350;2022-08-01T10:12:40;24.10;99.90
22491;DHT22;11412;50.802;4.350;2022-08-01T10:15:07;24.20;99.90
22491;DHT22;11412;50.802;4.350;2022-08-01T10:17:34;24.10;99.90
22491;DHT22;11412;50.802;4.350;2022-08-01T10:20:03;24.50;99.90
22491;DHT22;11412;50.802;4.350;2022-08-01T10:22:30;24.70;99.90
22491;DHT22;11412;50.802;4.350;2022-08-01T10:24:57;25.10;99.90
22491;DHT22;11412;50.802;4.350;2022-08-01T10:27:29;25.10;99.90
22491;DHT22;11412;50.802;4.350;2022-08-01T10:29:57;25.20;99.90
22491;DHT22;11412;50.802;4.350;2022-08-01T10:32:26;25.00;99.90
22491;DHT22;11412;50.802;4.350;2022-08-01T10:34:52;25.30;99.90
22491;DHT22;11412;50.802;4.350;2022-08-01T10:37:19;25.40;99.90
22491;DHT22;11412;50.802;4.350;2022-08-01T10:39:45;25.40;99.90
22491;DHT22;11412;50.802;4.350;2022-08-01T10:42:11;24.90;99.90
22491;DHT22;11412;50.802;4.350;2022-08-01T10:44:38;24.80;99.90
22491;DHT22;11412;50.802;4.350;2022-08-01T10:47:10;24.50;99.90
22491;DHT22;11412;50.802;4.350;2022-08-01T10:49:56;24.60;99.90
22491;DHT22;11412;50.802;4.350;2022-08-01T10:52:23;24.80;99.90
22491;DHT22;11412;50.802;4.350;2022-08-01T10:55:04;24.90;99.90
22491;DHT22;11412;50.802;4.350;2022-08-01T10:57:47;25.00;99.90
22491;DHT22;11412;50.802;4.350;2022-08-01T11:00:22;25.30;99.90
22491;DHT22;11412;50.802;4.350;2022-08-01T11:03:02;25.50;99.90
22491;DHT22;11412;50.802;4.350;2022-08-01T11:05:34;25.50;99.90
22491;DHT22;11412;50.802;4.350;2022-08-01T11:08:32;26.10;99.90
22491;DHT22;11412;50.802;4.350;2022-08-01T11:11:03;26.70;99.90
22491;DHT22;11412;50.802;4.350;2022-08-01T11:16:30;26.60;99.90
22491;DHT22;11412;50.802;4.350;2022-08-01T11:18:56;26.80;99.90
22491;DHT22;11412;50.802;4.350;2022-08-01T11:21:27;27.20;99.90
22491;DHT22;11412;50.802;4.350;2022-08-01T11:24:08;27.00;99.90
22491;DHT22;11412;50.802;4.350;2022-08-01T11:26:34;26.20;99.90
22491;DHT22;11412;50.802;4.350;2022-08-01T11:29:13;26.20;99.90
22491;DHT22;11412;50.802;4.350;2022-08-01T11:31:39;26.90;99.90
22491;DHT22;11412;50.802;4.350;2022-08-01T11:34:05;27.40;99.90
22491;DHT22;11412;50.802;4.350;2022-08-01T11:36:31;27.30;99.90
22491;DHT22;11412;50.802;4.350;2022-08-01T11:41:30;27.90;99.90
22491;DHT22;11412;50.802;4.350;2022-08-01T11:43:59;28.40;99.90
22491;DHT22;11412;50.802;4.350;2022-08-01T11:52:05;28.00;99.90
22491;DHT22;11412;50.802;4.350;2022-08-01T11:54:38;27.70;99.90
22491;DHT22;11412;50.802;4.350;2022-08-01T11:57:12;27.70;99.90
22491;DHT22;11412;50.802;4.350;2022-08-01T11:59:46;28.10;99.90
22491;DHT22;11412;50.802;4.350;2022-08-01T12:02:27;28.10;99.90
22491;DHT22;11412;50.802;4.350;2022-08-01T12:04:59;27.90;99.90
22491;DHT22;11412;50.802;4.350;2022-08-01T12:07:27;27.90;99.90
22491;DHT22;11412;50.802;4.350;2022-08-01T12:10:17;28.00;99.90
22491;DHT22;11412;50.802;4.350;2022-08-01T12:12:51;28.30;99.90
22491;DHT22;11412;50.802;4.350;2022-08-01T12:15:19;27.80;99.90
22491;DHT22;11412;50.802;4.350;2022-08-01T12:17:50;28.20;99.90
22491;DHT22;11412;50.802;4.350;2022-08-01T12:20:20;28.70;99.90
22491;DHT22;11412;50.802;4.350;2022-08-01T12:22:47;28.50;99.90
22491;DHT22;11412;50.802;4.350;2022-08-01T12:25:15;28.10;99.90
22491;DHT22;11412;50.802;4.350;2022-08-01T12:27:43;28.10;99.90
22491;DHT22;11412;50.802;4.350;2022-08-01T12:30:14;28.50;99.90
22491;DHT22;11412;50.802;4.350;2022-08-01T12:32:41;29.10;99.90
22491;DHT22;11412;50.802;4.350;2022-08-01T12:35:15;28.70;99.90
22491;DHT22;11412;50.802;4.350;2022-08-01T12:37:46;28.40;99.90
22491;DHT22;11412;50.802;4.350;2022-08-01T12:40:23;28.10;99.90
22491;DHT22;11412;50.802;4.350;2022-08-01T12:42:59;28.30;99.90
22491;DHT22;11412;50.802;4.350;2022-08-01T12:45:28;28.40;99.90
22491;DHT22;11412;50.802;4.350;2022-08-01T12:47:56;29.10;99.90
22491;DHT22;11412;50.802;4.350;2022-08-01T12:50:29;29.60;99.90
22491;DHT22;11412;50.802;4.350;2022-08-01T12:52:57;30.00;99.90
22491;DHT22;11412;50.802;4.350;2022-08-01T12:55:24;30.20;99.90
22491;DHT22;11412;50.802;4.350;2022-08-01T12:58:09;29.80;99.90
22491;DHT22;11412;50.802;4.350;2022-08-01T13:00:36;29.10;99.90
22491;DHT22;11412;50.802;4.350;2022-08-01T13:03:11;28.50;99.90
22491;DHT22;11412;50.802;4.350;2022-08-01T13:05:56;28.20;99.90
22491;DHT22;11412;50.802;4.350;2022-08-01T13:08:31;28.00;99.90
22491;DHT22;11412;50.802;4.350;2022-08-01T13:13:39;27.20;99.90
22491;DHT22;11412;50.802;4.350;2022-08-01T13:16:07;26.80;99.90
22491;DHT22;11412;50.802;4.350;2022-08-01T13:18:34;26.80;99.90
22491;DHT22;11412;50.802;4.350;2022-08-01T13:21:17;26.90;99.90
22491;DHT22;11412;50.802;4.350;2022-08-01T13:26:50;27.20;99.90
22491;DHT22;11412;50.802;4.350;2022-08-01T13:29:35;27.00;99.90
22491;DHT22;11412;50.802;4.350;2022-08-01T13:32:14;26.80;99.90
22491;DHT22;11412;50.802;4.350;2022-08-01T13:34:39;26.60;99.90
22491;DHT22;11412;50.802;4.350;2022-08-01T13:37:05;26.40;99.90
22491;DHT22;11412;50.802;4.350;2022-08-01T13:39:31;26.30;99.90
22491;DHT22;11412;50.802;4.350;2022-08-01T13:42:07;26.90;99.90
22491;DHT22;11412;50.802;4.350;2022-08-01T13:44:33;27.70;99.90
22491;DHT22;11412;50.802;4.350;2022-08-01T13:46:58;27.90;99.90
22491;DHT22;11412;50.802;4.350;2022-08-01T13:49:24;27.80;99.90
22491;DHT22;11412;50.802;4.350;2022-08-01T13:51:50;27.60;99.90
22491;DHT22;11412;50.802;4.350;2022-08-01T13:54:16;27.30;99.90
22491;DHT22;11412;50.802;4.350;2022-08-01T13:56:42;27.30;99.90
22491;DHT22;11412;50.802;4.350;2022-08-01T13:59:08;27.80;99.90
22491;DHT22;11412;50.802;4.350;2022-08-01T14:01:34;28.20;99.90
22491;DHT22;11412;50.802;4.350;2022-08-01T14:04:01;28.60;99.90
22491;DHT22;11412;50.802;4.350;2022-08-01T14:06:26;28.80;99.90
22491;DHT22;11412;50.802;4.350;2022-08-01T14:08:52;28.60;99.90
22491;DHT22;11412;50.802;4.350;2022-08-01T14:11:18;28.30;99.90
22491;DHT22;11412;50.802;4.350;2022-08-01T14:13:44;28.20;99.90
22491;DHT22;11412;50.802;4.350;2022-08-01T14:16:10;28.10;99.90
22491;DHT22;11412;50.802;4.350;2022-08-01T14:18:36;28.10;99.90
22491;DHT22;11412;50.802;4.350;2022-08-01T14:21:01;27.90;99.90
22491;DHT22;11412;50.802;4.350;2022-08-01T14:23:27;27.80;99.90
22491;DHT22;11412;50.802;4.350;2022-08-01T14:25:53;27.70;99.90
22491;DHT22;11412;50.802;4.350;2022-08-01T14:28:19;27.60;99.90
22491;DHT22;11412;50.802;4.350;2022-08-01T14:30:44;27.50;99.90
22491;DHT22;11412;50.802;4.350;2022-08-01T14:33:11;27.40;99.90
22491;DHT22;11412;50.802;4.350;2022-08-01T14:35:37;27.20;99.90
22491;DHT22;11412;50.802;4.350;2022-08-01T14:38:03;27.10;99.90
22491;DHT22;11412;50.802;4.350;2022-08-01T14:40:29;27.10;99.90
22491;DHT22;11412;50.802;4.350;2022-08-01T14:42:54;27.10;99.90
22491;DHT22;11412;50.802;4.350;2022-08-01T14:45:20;26.90;99.90
22491;DHT22;11412;50.802;4.350;2022-08-01T14:47:46;26.80;99.90
22491;DHT22;11412;50.802;4.350;2022-08-01T14:50:13;26.70;99.90
22491;DHT22;11412;50.802;4.350;2022-08-01T14:52:40;26.80;99.90
22491;DHT22;11412;50.802;4.350;2022-08-01T14:55:07;26.80;99.90
22491;DHT22;11412;50.802;4.350;2022-08-01T14:57:34;26.90;99.90
22491;DHT22;11412;50.802;4.350;2022-08-01T14:59:59;26.60;99.90
22491;DHT22;11412;50.802;4.350;2022-08-01T15:02:25;26.50;99.90
22491;DHT22;11412;50.802;4.350;2022-08-01T15:04:51;26.60;99.90
22491;DHT22;11412;50.802;4.350;2022-08-01T15:07:17;26.70;99.90
22491;DHT22;11412;50.802;4.350;2022-08-01T15:09:43;27.10;99.90
22491;DHT22;11412;50.802;4.350;2022-08-01T15:12:10;27.60;99.90
22491;DHT22;11412;50.802;4.350;2022-08-01T15:14:36;28.00;99.90
22491;DHT22;11412;50.802;4.350;2022-08-01T15:19:46;28.00;99.90
22491;DHT22;11412;50.802;4.350;2022-08-01T15:22:13;28.10;99.90
22491;DHT22;11412;50.802;4.350;2022-08-01T15:24:39;28.20;99.90
22491;DHT22;11412;50.802;4.350;2022-08-01T15:27:05;28.20;99.90
22491;DHT22;11412;50.802;4.350;2022-08-01T15:29:31;28.00;99.90
22491;DHT22;11412;50.802;4.350;2022-08-01T15:31:57;27.70;99.90
22491;DHT22;11412;50.802;4.350;2022-08-01T15:34:23;27.70;99.90
22491;DHT22;11412;50.802;4.350;2022-08-01T15:36:49;28.00;99.90
22491;DHT22;11412;50.802;4.350;2022-08-01T15:39:14;28.10;99.90
22491;DHT22;11412;50.802;4.350;2022-08-01T15:41:40;28.00;99.90
22491;DHT22;11412;50.802;4.350;2022-08-01T15:44:06;27.90;99.90
22491;DHT22;11412;50.802;4.350;2022-08-01T15:46:32;27.90;99.90
22491;DHT22;11412;50.802;4.350;2022-08-01T15:49:02;27.90;99.90
22491;DHT22;11412;50.802;4.350;2022-08-01T15:51:28;28.00;99.90
22491;DHT22;11412;50.802;4.350;2022-08-01T15:53:54;27.80;99.90
22491;DHT22;11412;50.802;4.350;2022-08-01T15:56:20;27.80;99.90
22491;DHT22;11412;50.802;4.350;2022-08-01T15:58:45;27.70;99.90
22491;DHT22;11412;50.802;4.350;2022-08-01T16:01:11;27.80;99.90
22491;DHT22;11412;50.802;4.350;2022-08-01T16:03:37;27.70;99.90
22491;DHT22;11412;50.802;4.350;2022-08-01T16:06:03;27.80;99.90